• Join FlightAware (Why Join?)
  • Login
  • US Flag 
11:54AM EDT


 

Airport Tracker/Info


-or-


 

Live Flight TrackerFlight Track Log ✈ N175HQ ✈ 22-Apr-2013 ✈ KDEN - KPHX

Flight Track Log - Related Links

Times and Time Zones

All times are in EDT time to prevent confusion due to time zone crossing. See the N175HQ flight status page for this flight to view local times or setup timezone preferences in your user account.

Time Position Orientation Groundspeed Altitude Reporting Facility
EDT Latitude Longitude Course Direction KTS MPH feet Rate Location/Type
05:21PM 39.8500 -104.8167 218° Southwest 270 311 9,100  Level Denver TRACON
05:22PM 39.8078 -104.8722 225° Southwest 283 326 10,000 2,160 Climbing Denver Center
05:23PM 39.7369 -104.9250 210° Southwest 303 349 13,000 2,640 Climbing Denver Center
05:24PM 39.6431 -104.9106 173° South 324 373 15,500 2,340 Climbing Denver Center
05:25PM 39.5581 -104.9192 184° South 305 351 17,800 1,860 Climbing Denver Center
05:26PM 39.4211 -104.5622 218° Southwest  Level FlightAware Approximate
05:26PM 39.4869 -104.9444 195° South 313 360 19,300  Level Denver Center
05:27PM 39.3772 -104.9817 195° South 333 383 21,500 1,740 Climbing Denver Center
05:28PM 39.2856 -105.0136 195° South 344 396 23,000 1,200 Climbing Denver Center
05:29PM 39.1903 -105.0458 195° South 354 407 24,000 1,500 Climbing Denver Center
05:30PM 39.1078 -105.0828 199° South 328 377 26,100 1,920 Climbing Denver Center
05:31PM 39.0097 -105.1467 207° Southwest 333 383 28,000 1,440 Climbing Denver Center
05:33PM 38.8319 -105.2603 206° Southwest 356 410 30,600 1,320 Climbing Denver Center
05:34PM 38.7419 -105.3172 206° Southwest 357 411 32,200 1,260 Climbing Denver Center
05:35PM 38.6522 -105.3742 206° Southwest 356 410 33,300 840 Climbing Denver Center
05:36PM 38.5608 -105.4331 207° Southwest 362 417 34,000 300 Climbing Denver Center
05:37PM 38.4747 -105.4875 206° Southwest 346 398 34,000  Level Denver Center
05:38PM 38.3883 -105.5406 206° Southwest 342 394 34,000  Level Denver Center
05:39PM 38.2936 -105.6014 207° Southwest 341 392 34,000  Level Denver Center
05:40PM 38.2119 -105.6528 206° Southwest 342 394 34,000  Level Denver Center
05:41PM 38.1142 -105.7147 206° Southwest 349 402 34,000  Level Denver Center
05:42PM 38.0339 -105.7642 206° Southwest 340 391 34,000  Level Denver Center
05:43PM 37.9656 -105.8358 220° Southwest 335 386 34,000  Level Denver Center
05:44PM 37.8944 -105.9275 226° Southwest 327 376 34,000  Level Denver Center
05:45PM 37.8358 -106.0028 225° Southwest 319 367 34,000  Level Denver Center
05:46PM 37.7658 -106.0906 225° Southwest 317 365 34,000  Level Denver Center
05:47PM 37.7064 -106.1656 225° Southwest 316 364 34,000  Level Denver Center
05:48PM 37.6419 -106.2469 225° Southwest 318 366 34,000  Level Denver Center
05:49PM 37.5686 -106.3383 225° Southwest 328 377 34,000  Level Denver Center
05:50PM 37.5075 -106.4158 225° Southwest 327 376 34,000  Level Denver Center
05:51PM 37.4467 -106.4933 225° Southwest 326 375 34,000  Level Denver Center
05:52PM 37.3753 -106.5825 225° Southwest 324 373 34,000  Level Denver Center
05:54PM 37.3150 -106.6586 225° Southwest 321 369 34,000  Level Denver Center
05:55PM 37.2433 -106.7453 224° Southwest 320 368 34,000  Level Denver Center
05:56PM 37.1828 -106.8203 225° Southwest 319 367 34,000  Level Denver Center
05:57PM 37.1139 -106.9081 225° Southwest 318 366 34,000  Level Denver Center
05:58PM 37.0517 -106.9847 225° Southwest 324 373 34,000  Level Denver Center
05:59PM 36.9800 -107.0733 225° Southwest 324 373 34,000  Level Denver Center
06:00PM 36.9175 -107.1506 225° Southwest 330 380 34,000  Level Denver Center
06:01PM 36.8544 -107.2267 224° Southwest 331 381 34,000  Level Denver Center
06:02PM 36.7814 -107.3167 225° Southwest 329 379 34,000  Level Denver Center
06:03PM 36.7186 -107.3925 224° Southwest 329 379 34,000  Level Denver Center
06:04PM 36.6450 -107.4817 224° Southwest 329 379 34,000  Level Denver Center
06:05PM 36.5814 -107.5586 224° Southwest 332 382 34,000  Level Denver Center
06:06PM 36.5086 -107.6467 224° Southwest 329 379 34,000  Level Denver Center
06:07PM 36.4453 -107.7253 225° Southwest 333 383 34,000  Level Denver Center
06:08PM 36.3806 -107.8014 223° Southwest 335 386 34,000  Level Denver Center
06:09PM 36.2969 -107.9036 225° Southwest 331 381 34,000  Level Denver Center
06:10PM 36.2331 -107.9794 224° Southwest 331 381 34,000  Level Denver Center
06:11PM 36.1578 -108.0692 224° Southwest 334 384 34,000  Level Denver Center
06:12PM 36.0925 -108.1458 224° Southwest 336 387 34,000  Level Denver Center
06:13PM 36.0192 -108.2333 224° Southwest 330 380 34,000  Level Denver Center
06:14PM 35.9556 -108.3081 224° Southwest 329 379 34,000  Level Denver Center
06:15PM 35.8811 -108.3978 224° Southwest 331 381 34,000  Level Denver Center
06:16PM 35.8042 -108.4881 224° Southwest 337 388 34,000  Level Albuquerque Center
06:17PM 35.7397 -108.5644 224° Southwest 336 387 34,000  Level Albuquerque Center
06:19PM 35.6636 -108.6547 224° Southwest 337 388 34,000 -300 Level Albuquerque Center
06:20PM 35.5956 -108.7333 223° Southwest 344 396 33,500 -660 Descending Albuquerque Center
06:21PM 35.5239 -108.8181 224° Southwest 363 418 32,700 -780 Descending Albuquerque Center
06:22PM 35.4406 -108.9178 224° Southwest 371 427 32,000 -360 Descending Albuquerque Center
06:23PM 35.3731 -109.0081 227° Southwest 373 429 32,000  Level Albuquerque Center
06:24PM 35.2933 -109.1108 226° Southwest 372 428 32,000  Level Albuquerque Center
06:25PM 35.2253 -109.1978 226° Southwest 369 425 32,000  Level Albuquerque Center
06:26PM 35.1572 -109.2858 227° Southwest 371 427 32,000  Level Albuquerque Center
06:27PM 35.0781 -109.3886 227° Southwest 371 427 32,000  Level Albuquerque Center
06:28PM 35.0094 -109.4744 226° Southwest 368 423 32,000  Level Albuquerque Center
06:29PM 34.9278 -109.5764 226° Southwest 374 430 32,000  Level Albuquerque Center
06:30PM 34.8558 -109.6667 226° Southwest 383 441 32,000  Level Albuquerque Center
06:31PM 34.7731 -109.7725 226° Southwest 385 443 32,000  Level Albuquerque Center
06:32PM 34.7031 -109.8653 227° Southwest 388 447 32,000  Level Albuquerque Center
06:33PM 34.6622 -109.9781 246° West 382 440 32,000  Level Albuquerque Center
06:34PM 34.6150 -110.1117 247° West 383 441 32,000  Level Albuquerque Center
06:35PM 34.5769 -110.2286 248° West 387 445 32,000  Level Albuquerque Center
06:36PM 34.5233 -110.3517 242° Southwest 376 433 32,000 -300 Level Albuquerque Center
06:37PM 34.4883 -110.4519 247° West 377 434 31,500 -1,500 Descending Albuquerque Center
06:38PM 34.4353 -110.5961 246° West 391 450 29,000 -2,160 Descending Albuquerque Center
06:39PM 34.3900 -110.7089 244° Southwest 378 435 27,100 -1,920 Descending Albuquerque Center
06:40PM 34.3417 -110.8183 242° Southwest 374 430 25,100 -1,920 Descending Albuquerque Center
06:41PM 34.2697 -110.9039 225° Southwest 361 415 23,200 -1,860 Descending Albuquerque Center
06:42PM 34.2022 -110.9919 227° Southwest 358 412 21,300 -1,860 Descending Albuquerque Center
06:43PM 34.1369 -111.0772 227° Southwest 352 405 19,500 -1,800 Descending Albuquerque Center
06:44PM 34.0733 -111.1581 226° Southwest 339 390 17,600 -1,860 Descending Albuquerque Center
06:45PM 34.0000 -111.2536 227° Southwest 326 375 15,700 -1,800 Descending Albuquerque Center
06:46PM 33.9392 -111.3314 227° Southwest 320 368 14,000 -1,680 Descending Albuquerque Center
06:47PM 33.8806 -111.4061 227° Southwest 305 351 12,300 -1,500 Descending Albuquerque Center
06:48PM 33.8139 -111.4636 216° Southwest 291 335 11,000 -660 Descending Albuquerque Center
06:49PM 33.7494 -111.5206 216° Southwest 288 331 11,000 -480 Level Albuquerque Center
06:50PM 33.6839 -111.5750 215° Southwest 285 328 10,100 -1,140 Descending Albuquerque Center
06:51PM 33.6256 -111.6247 215° Southwest 259 298 8,700 -1,320 Descending Albuquerque Center
06:52PM 33.5642 -111.6508 200° South 241 277 7,500 -1,140 Descending Albuquerque Center
06:53PM 33.5067 -111.6822 204° Southwest 232 267 6,400 -1,260 Descending Albuquerque Center
06:54PM 33.4689 -111.7419 233° Southwest 225 259 5,000 -1,560 Descending Albuquerque Center
06:56PM 33.4406 -111.8217 247° West 222 255 3,300 -1,080 Descending Albuquerque Center
06:57PM 33.4411 -111.8825 271° West 185 213 2,900 -540 Descending Albuquerque Center
06:58PM 33.4408 -111.9264 270° West 138 159 2,200 -720 Descending Albuquerque Center
06:59PM 33.4417 -111.9703 271° West 132 152 1,500 -540 Descending Albuquerque Center
07:00PM 33.4389 -112.0175 266° West 130 150 1,200 -300 Descending Albuquerque Center